Mango, FL (33550)

2:55 PM EST on December 06, 2016 (GMT -0500)
Lakeview Village | | Change Station

Elev 49 ft 27.97 °N, 82.30 °W | Updated 11 seconds ago

Heavy Rain
Heavy Rain
76.6 °F
Feels Like 77 °F
N
8.3
Wind Variable Wind from SW
Gusts 9.8 mph

Today
High -- | Low -- °F
--% Chance of Precip.
Yesterday
High -- | Low -- °F
Precip. -- in
Pressure 29.90 in
Visibility 3.0 miles
Clouds Mostly Cloudy 800 ft
Mostly Cloudy 1400 ft
Overcast 2000 ft
Heat Index 77 °F
Dew Point 74 °F
Humidity 92%
Rainfall 0.24 in
Snow Depth Not available.
7:07 AM 5:33 PM
Waxing Crescent, 44% visible
METAR KVDF 061815Z AUTO 26007KT 3SM +RA BKN008 BKN014 OVC020 24/22 A2990 RMK AO2 P0018
Pressure 29.90 in
Visibility 3.0 miles
Clouds Mostly Cloudy 800 ft
Mostly Cloudy 1400 ft
Overcast 2000 ft
Heat Index 77 °F
Dew Point 74 °F
Humidity 92%
Rainfall 0.24 in
Snow Depth Not available.
7:07 AM 5:33 PM
Waxing Crescent, 44% visible
METAR KVDF 061815Z AUTO 26007KT 3SM +RA BKN008 BKN014 OVC020 24/22 A2990 RMK AO2 P0018

10-Day Weather Forecast

Almanac

Astronomy

Dec. 06, 2016 Rise Set
Actual Time
Civil Twilight
Nautical Twilight
Astronomical Twilight
Moon
Length of Visible Light
Length of Day
Tomorrow will be .
, % of the Moon is Illuminated

Today's Extremes

State Highs State Lows

Community

WunderPhotos

Upload Photos

1,956,020 photos uploaded!

WunderBlog® & News

Nearby

Air Quality

  Air Quality AQ Index Pollutant
Not available.

Snow Depth

Station Depth Elevation

Earthquake Activity

City Distance Mag. Time & Date
Minimum magnitude displayed is 2.5.

Coastal Water Temperatures

Place Temperature

Stations

Nearby Weather Stations

Station Location Temp. Windchill Dew Point Humidity Wind Precip. Elev Updated Type
                   

Watches & Warnings

There are currently no watches in effect.